Wisdom, Montana
Current Conditions -  °F | °C
As of 7:35 PM on Friday 24 Oct 2014 (Local Time) from KSMN Reporting Station
Clear Clear  
Wind Chill: 40°   Ceiling: Unl
Heat Index: 43°   Visibility: 10mi
Dew Point: 39°   Wind: 5mph
Humidity: 87%   Direction: 120°ESE
Pressure: 30.07"   Gusts: NA
Location:  45.61°N, 113.44°W
Report Text: KSMN 250135Z AUTO 12004KT 10SM CLR 06/04 A3007 RMK AO1
Loading
Personal Weather Stations






























Interactive Weather Map
Tropical Storm Tracking
New forecast layout! Learn more

10-Day Weather Forecast

Advertisements
Track Severe Weather on mobile